テルアビブ / ベン・グリオン の空港の天気 - METARとTAF

ベン・グリオン国際空港(テルアビブ) ( LLBG / TLV ) - イスラエル ロード / テルアビブ
飛行場実況気象(Metar)
観測時間11/22 14:50 IST (11/22 12:50 UTC)
風向・風速西北西 8m/s
視程10km以上
天気現象
全天の8割程度の雲 雲底高度 1460m
気温19℃
湿度46%
気圧1016hPa
METARLLBG 221250Z 29016KT 9999 BKN048 19/07 Q1016 NOSIG
過去の天気等 Google飛行場航空写真 Wunderground天気予報

過去48時間のMETAR

飛行場予報(TAF)
発表時間: 11/22 13:07 IST (11/22 11:07 UTC)
予報対象時間: 22日14時 IST ~ 23日14時 IST
風向・風速西北西 7m/s
視程10km以上
全天の4割程度の雲 雲底高度 1,220m
22日14時 IST ~ 22日17時 IST に一時的に
天気現象弱い雨
全天の8割程度の雲 雲底高度 1,070m
22日17時 IST ~ 22日19時 IST に徐々に
風向・風速不定 2m/s
22日22時 IST ~ 22日24時 IST に徐々に
風向・風速南南東 3m/s
23日9時 IST ~ 23日11時 IST に徐々に
風向・風速西 5m/s
23日11時 IST から 確率 30% で
視程8,000m
天気現象
少しの塔状積雲 雲底高度 910m
全天の8割程度の雲 雲底高度 1,070m
TAF LLBG 221107Z 2212/2312 30014KT 9999 SCT040
TEMPO 2212/2215 -RA BKN035
BECMG 2215/2217 VRB04KT
BECMG 2220/2222 15006KT
BECMG 2307/2309 27010KT
PROB30 2309/2312 8000 RA FEW030TCU BKN035 TX19/2212Z TN13/2304Z